sensor_id;sensor_type;location;lat;lon;timestamp;temperature;humidity
28460;DHT22;32528;45.712;9.192;2022-09-03T00:01:12;21.70;91.10
28460;DHT22;32528;45.712;9.192;2022-09-03T00:10:46;21.70;89.00
28460;DHT22;32528;45.712;9.192;2022-09-03T00:12:51;21.80;88.00
28460;DHT22;32528;45.712;9.192;2022-09-03T00:15:06;21.80;87.60
28460;DHT22;32528;45.712;9.192;2022-09-03T00:17:14;21.90;87.00
28460;DHT22;32528;45.712;9.192;2022-09-03T00:19:19;21.90;87.00
28460;DHT22;32528;45.712;9.192;2022-09-03T00:23:44;22.00;85.80
28460;DHT22;32528;45.712;9.192;2022-09-03T00:28:17;22.10;84.50
28460;DHT22;32528;45.712;9.192;2022-09-03T00:30:19;22.10;84.30
28460;DHT22;32528;45.712;9.192;2022-09-03T00:32:44;22.10;84.20
28460;DHT22;32528;45.712;9.192;2022-09-03T00:34:51;22.10;83.20
28460;DHT22;32528;45.712;9.192;2022-09-03T00:36:56;22.10;83.00
28460;DHT22;32528;45.712;9.192;2022-09-03T00:38:57;22.20;83.10
28460;DHT22;32528;45.712;9.192;2022-09-03T00:41:09;22.20;82.90
28460;DHT22;32528;45.712;9.192;2022-09-03T00:45:43;22.20;82.30
28460;DHT22;32528;45.712;9.192;2022-09-03T00:50:09;22.30;83.30
28460;DHT22;32528;45.712;9.192;2022-09-03T01:08:08;22.10;88.00
28460;DHT22;32528;45.712;9.192;2022-09-03T01:10:17;22.00;87.90
28460;DHT22;32528;45.712;9.192;2022-09-03T01:12:33;21.90;88.60
28460;DHT22;32528;45.712;9.192;2022-09-03T01:15:03;21.80;90.10
28460;DHT22;32528;45.712;9.192;2022-09-03T01:20:00;21.70;90.60
28460;DHT22;32528;45.712;9.192;2022-09-03T01:30:14;21.60;91.70
28460;DHT22;32528;45.712;9.192;2022-09-03T01:39:12;21.30;92.00
28460;DHT22;32528;45.712;9.192;2022-09-03T01:41:44;21.30;92.20
28460;DHT22;32528;45.712;9.192;2022-09-03T01:44:29;21.30;92.50
28460;DHT22;32528;45.712;9.192;2022-09-03T01:46:39;21.20;92.30
28460;DHT22;32528;45.712;9.192;2022-09-03T01:48:43;21.20;92.70
28460;DHT22;32528;45.712;9.192;2022-09-03T01:56:01;21.10;92.50
28460;DHT22;32528;45.712;9.192;2022-09-03T01:58:18;21.10;92.40
28460;DHT22;32528;45.712;9.192;2022-09-03T02:00:21;21.10;91.90
28460;DHT22;32528;45.712;9.192;2022-09-03T02:02:24;21.20;91.40
28460;DHT22;32528;45.712;9.192;2022-09-03T02:04:27;21.20;91.60
28460;DHT22;32528;45.712;9.192;2022-09-03T02:06:28;21.20;91.20
28460;DHT22;32528;45.712;9.192;2022-09-03T02:08:31;21.20;91.10
28460;DHT22;32528;45.712;9.192;2022-09-03T02:10:45;21.20;90.80
28460;DHT22;32528;45.712;9.192;2022-09-03T02:13:56;21.20;90.80
28460;DHT22;32528;45.712;9.192;2022-09-03T02:15:26;21.20;90.90
28460;DHT22;32528;45.712;9.192;2022-09-03T02:17:27;21.20;91.20
28460;DHT22;32528;45.712;9.192;2022-09-03T02:19:29;21.20;91.30
28460;DHT22;32528;45.712;9.192;2022-09-03T02:21:36;21.20;91.20
28460;DHT22;32528;45.712;9.192;2022-09-03T02:23:40;21.20;91.30
28460;DHT22;32528;45.712;9.192;2022-09-03T02:25:45;21.20;90.90
28460;DHT22;32528;45.712;9.192;2022-09-03T02:27:48;21.20;91.30
28460;DHT22;32528;45.712;9.192;2022-09-03T02:29:49;21.20;91.70
28460;DHT22;32528;45.712;9.192;2022-09-03T02:31:50;21.20;92.00
28460;DHT22;32528;45.712;9.192;2022-09-03T02:33:51;21.10;91.90
28460;DHT22;32528;45.712;9.192;2022-09-03T02:35:52;21.10;91.80
28460;DHT22;32528;45.712;9.192;2022-09-03T02:37:53;21.10;91.60
28460;DHT22;32528;45.712;9.192;2022-09-03T02:39:54;21.10;91.60
28460;DHT22;32528;45.712;9.192;2022-09-03T02:41:56;21.00;91.60
28460;DHT22;32528;45.712;9.192;2022-09-03T02:46:07;21.00;91.80
28460;DHT22;32528;45.712;9.192;2022-09-03T02:48:09;21.00;91.90
28460;DHT22;32528;45.712;9.192;2022-09-03T02:50:10;21.00;91.60
28460;DHT22;32528;45.712;9.192;2022-09-03T02:52:11;21.00;91.30
28460;DHT22;32528;45.712;9.192;2022-09-03T02:54:12;21.00;91.20
28460;DHT22;32528;45.712;9.192;2022-09-03T02:56:13;21.00;91.30
28460;DHT22;32528;45.712;9.192;2022-09-03T02:58:14;21.00;91.40
28460;DHT22;32528;45.712;9.192;2022-09-03T03:00:14;21.00;91.60
28460;DHT22;32528;45.712;9.192;2022-09-03T03:02:16;21.00;92.50
28460;DHT22;32528;45.712;9.192;2022-09-03T03:04:17;21.10;92.10
28460;DHT22;32528;45.712;9.192;2022-09-03T03:06:19;21.00;92.40
28460;DHT22;32528;45.712;9.192;2022-09-03T03:08:22;21.00;92.60
28460;DHT22;32528;45.712;9.192;2022-09-03T03:10:23;21.00;92.50
28460;DHT22;32528;45.712;9.192;2022-09-03T03:12:23;20.90;92.20
28460;DHT22;32528;45.712;9.192;2022-09-03T03:14:25;20.90;92.10
28460;DHT22;32528;45.712;9.192;2022-09-03T03:16:25;20.90;92.80
28460;DHT22;32528;45.712;9.192;2022-09-03T03:18:26;20.90;92.40
28460;DHT22;32528;45.712;9.192;2022-09-03T03:20:27;20.90;92.10
28460;DHT22;32528;45.712;9.192;2022-09-03T03:22:28;20.80;92.20
28460;DHT22;32528;45.712;9.192;2022-09-03T03:24:29;20.80;92.00
28460;DHT22;32528;45.712;9.192;2022-09-03T03:26:30;20.70;92.00
28460;DHT22;32528;45.712;9.192;2022-09-03T03:28:31;20.70;91.90
28460;DHT22;32528;45.712;9.192;2022-09-03T03:30:36;20.80;91.80
28460;DHT22;32528;45.712;9.192;2022-09-03T03:32:38;20.70;91.40
28460;DHT22;32528;45.712;9.192;2022-09-03T03:34:39;20.70;91.20
28460;DHT22;32528;45.712;9.192;2022-09-03T03:36:40;20.70;91.20
28460;DHT22;32528;45.712;9.192;2022-09-03T03:38:42;20.70;91.30
28460;DHT22;32528;45.712;9.192;2022-09-03T03:40:43;20.70;91.10
28460;DHT22;32528;45.712;9.192;2022-09-03T03:42:43;20.70;91.40
28460;DHT22;32528;45.712;9.192;2022-09-03T03:44:44;20.70;91.70
28460;DHT22;32528;45.712;9.192;2022-09-03T03:46:45;20.70;91.40
28460;DHT22;32528;45.712;9.192;2022-09-03T03:48:50;20.70;91.50
28460;DHT22;32528;45.712;9.192;2022-09-03T03:50:51;20.70;91.60
28460;DHT22;32528;45.712;9.192;2022-09-03T03:52:52;20.60;91.70
28460;DHT22;32528;45.712;9.192;2022-09-03T03:54:53;20.60;91.40
28460;DHT22;32528;45.712;9.192;2022-09-03T03:56:54;20.60;91.20
28460;DHT22;32528;45.712;9.192;2022-09-03T03:58:55;20.60;91.30
28460;DHT22;32528;45.712;9.192;2022-09-03T04:01:24;20.60;91.00
28460;DHT22;32528;45.712;9.192;2022-09-03T04:03:24;20.60;91.10
28460;DHT22;32528;45.712;9.192;2022-09-03T04:05:25;20.60;91.50
28460;DHT22;32528;45.712;9.192;2022-09-03T04:07:25;20.60;91.60
28460;DHT22;32528;45.712;9.192;2022-09-03T04:09:26;20.60;91.40
28460;DHT22;32528;45.712;9.192;2022-09-03T04:11:27;20.60;90.90
28460;DHT22;32528;45.712;9.192;2022-09-03T04:13:32;20.60;90.80
28460;DHT22;32528;45.712;9.192;2022-09-03T04:15:33;20.60;91.00
28460;DHT22;32528;45.712;9.192;2022-09-03T04:17:34;20.60;91.20
28460;DHT22;32528;45.712;9.192;2022-09-03T04:19:35;20.60;91.20
28460;DHT22;32528;45.712;9.192;2022-09-03T04:21:36;20.60;91.30
28460;DHT22;32528;45.712;9.192;2022-09-03T04:23:39;20.60;91.10
28460;DHT22;32528;45.712;9.192;2022-09-03T04:25:40;20.60;91.10
28460;DHT22;32528;45.712;9.192;2022-09-03T04:27:41;20.60;90.80
28460;DHT22;32528;45.712;9.192;2022-09-03T04:29:43;20.70;90.60
28460;DHT22;32528;45.712;9.192;2022-09-03T04:31:44;20.70;90.50
28460;DHT22;32528;45.712;9.192;2022-09-03T04:34:04;20.70;90.20
28460;DHT22;32528;45.712;9.192;2022-09-03T04:36:15;20.70;89.80
28460;DHT22;32528;45.712;9.192;2022-09-03T04:38:16;20.80;90.20
28460;DHT22;32528;45.712;9.192;2022-09-03T04:40:17;20.70;90.40
28460;DHT22;32528;45.712;9.192;2022-09-03T04:42:17;20.80;90.40
28460;DHT22;32528;45.712;9.192;2022-09-03T04:44:18;20.70;90.40
28460;DHT22;32528;45.712;9.192;2022-09-03T04:46:20;20.80;90.90
28460;DHT22;32528;45.712;9.192;2022-09-03T04:48:21;20.80;90.40
28460;DHT22;32528;45.712;9.192;2022-09-03T04:50:21;20.80;90.30
28460;DHT22;32528;45.712;9.192;2022-09-03T04:52:32;20.80;90.30
28460;DHT22;32528;45.712;9.192;2022-09-03T04:54:33;20.80;90.30
28460;DHT22;32528;45.712;9.192;2022-09-03T04:56:34;20.80;90.50
28460;DHT22;32528;45.712;9.192;2022-09-03T04:58:36;20.80;90.30
28460;DHT22;32528;45.712;9.192;2022-09-03T05:00:37;20.80;90.30
28460;DHT22;32528;45.712;9.192;2022-09-03T05:02:38;20.80;90.70
28460;DHT22;32528;45.712;9.192;2022-09-03T05:04:39;20.90;90.40
28460;DHT22;32528;45.712;9.192;2022-09-03T05:06:40;20.90;90.40
28460;DHT22;32528;45.712;9.192;2022-09-03T05:08:42;20.90;90.50
28460;DHT22;32528;45.712;9.192;2022-09-03T05:10:43;20.90;90.90
28460;DHT22;32528;45.712;9.192;2022-09-03T05:12:44;20.90;91.10
28460;DHT22;32528;45.712;9.192;2022-09-03T05:14:44;20.90;91.20
28460;DHT22;32528;45.712;9.192;2022-09-03T05:16:45;20.90;91.40
28460;DHT22;32528;45.712;9.192;2022-09-03T05:18:46;20.90;91.50
28460;DHT22;32528;45.712;9.192;2022-09-03T05:20:47;20.80;91.50
28460;DHT22;32528;45.712;9.192;2022-09-03T05:23:00;20.80;91.10
28460;DHT22;32528;45.712;9.192;2022-09-03T05:25:02;20.80;90.70
28460;DHT22;32528;45.712;9.192;2022-09-03T05:27:03;20.80;90.60
28460;DHT22;32528;45.712;9.192;2022-09-03T05:29:05;20.80;90.70
28460;DHT22;32528;45.712;9.192;2022-09-03T05:31:15;20.80;90.80
28460;DHT22;32528;45.712;9.192;2022-09-03T05:33:16;20.80;91.00
28460;DHT22;32528;45.712;9.192;2022-09-03T05:35:17;20.80;91.00
28460;DHT22;32528;45.712;9.192;2022-09-03T05:37:18;20.80;91.00
28460;DHT22;32528;45.712;9.192;2022-09-03T05:39:18;20.80;91.40
28460;DHT22;32528;45.712;9.192;2022-09-03T05:41:19;20.80;91.40
28460;DHT22;32528;45.712;9.192;2022-09-03T05:43:21;20.80;91.60
28460;DHT22;32528;45.712;9.192;2022-09-03T05:45:22;20.80;91.30
28460;DHT22;32528;45.712;9.192;2022-09-03T05:47:22;20.80;91.00
28460;DHT22;32528;45.712;9.192;2022-09-03T05:49:23;20.90;91.00
28460;DHT22;32528;45.712;9.192;2022-09-03T05:51:25;20.90;91.40
28460;DHT22;32528;45.712;9.192;2022-09-03T05:53:30;20.90;91.30
28460;DHT22;32528;45.712;9.192;2022-09-03T05:55:32;20.90;91.00
28460;DHT22;32528;45.712;9.192;2022-09-03T05:57:33;20.90;90.80
28460;DHT22;32528;45.712;9.192;2022-09-03T05:59:35;20.90;90.80
28460;DHT22;32528;45.712;9.192;2022-09-03T06:01:38;21.00;90.90
28460;DHT22;32528;45.712;9.192;2022-09-03T06:03:40;21.00;90.90
28460;DHT22;32528;45.712;9.192;2022-09-03T06:05:52;21.00;90.90
28460;DHT22;32528;45.712;9.192;2022-09-03T06:07:53;21.00;91.00
28460;DHT22;32528;45.712;9.192;2022-09-03T06:09:54;21.00;91.60
28460;DHT22;32528;45.712;9.192;2022-09-03T06:11:55;20.90;90.90
28460;DHT22;32528;45.712;9.192;2022-09-03T06:13:57;20.90;91.20
28460;DHT22;32528;45.712;9.192;2022-09-03T06:16:04;21.00;91.50
28460;DHT22;32528;45.712;9.192;2022-09-03T06:18:05;20.90;91.10
28460;DHT22;32528;45.712;9.192;2022-09-03T06:20:07;21.00;91.10
28460;DHT22;32528;45.712;9.192;2022-09-03T06:22:07;20.90;91.20
28460;DHT22;32528;45.712;9.192;2022-09-03T06:24:19;20.90;91.70
28460;DHT22;32528;45.712;9.192;2022-09-03T06:26:22;20.90;91.40
28460;DHT22;32528;45.712;9.192;2022-09-03T06:28:23;21.00;91.40
28460;DHT22;32528;45.712;9.192;2022-09-03T06:30:24;21.10;91.30
28460;DHT22;32528;45.712;9.192;2022-09-03T06:32:26;21.10;91.40
28460;DHT22;32528;45.712;9.192;2022-09-03T06:34:28;21.10;91.20
28460;DHT22;32528;45.712;9.192;2022-09-03T06:36:29;21.10;90.90
28460;DHT22;32528;45.712;9.192;2022-09-03T06:38:31;21.20;90.80
28460;DHT22;32528;45.712;9.192;2022-09-03T06:40:35;21.30;90.80
28460;DHT22;32528;45.712;9.192;2022-09-03T06:42:35;21.40;90.80
28460;DHT22;32528;45.712;9.192;2022-09-03T06:44:37;21.40;90.60
28460;DHT22;32528;45.712;9.192;2022-09-03T06:46:39;21.50;90.40
28460;DHT22;32528;45.712;9.192;2022-09-03T06:48:42;21.60;90.10
28460;DHT22;32528;45.712;9.192;2022-09-03T06:50:43;21.70;90.30
28460;DHT22;32528;45.712;9.192;2022-09-03T06:52:43;21.80;90.90
28460;DHT22;32528;45.712;9.192;2022-09-03T06:54:44;22.00;90.60
28460;DHT22;32528;45.712;9.192;2022-09-03T06:56:45;22.00;90.10
28460;DHT22;32528;45.712;9.192;2022-09-03T06:58:47;22.20;90.10
28460;DHT22;32528;45.712;9.192;2022-09-03T07:00:48;22.20;89.10
28460;DHT22;32528;45.712;9.192;2022-09-03T07:02:55;22.30;88.80
28460;DHT22;32528;45.712;9.192;2022-09-03T07:04:58;22.30;87.90
28460;DHT22;32528;45.712;9.192;2022-09-03T07:06:59;22.40;87.80
28460;DHT22;32528;45.712;9.192;2022-09-03T07:09:00;22.40;87.90
28460;DHT22;32528;45.712;9.192;2022-09-03T07:11:02;22.50;87.30
28460;DHT22;32528;45.712;9.192;2022-09-03T07:13:08;22.50;87.20
28460;DHT22;32528;45.712;9.192;2022-09-03T07:15:10;22.60;86.30
28460;DHT22;32528;45.712;9.192;2022-09-03T07:17:11;22.60;86.50
28460;DHT22;32528;45.712;9.192;2022-09-03T07:19:12;22.70;86.40
28460;DHT22;32528;45.712;9.192;2022-09-03T07:21:15;22.70;86.30
28460;DHT22;32528;45.712;9.192;2022-09-03T07:23:16;22.70;84.90
28460;DHT22;32528;45.712;9.192;2022-09-03T07:25:18;22.80;84.90
28460;DHT22;32528;45.712;9.192;2022-09-03T07:27:18;22.90;84.30
28460;DHT22;32528;45.712;9.192;2022-09-03T07:29:19;22.90;84.10
28460;DHT22;32528;45.712;9.192;2022-09-03T07:31:24;23.00;83.60
28460;DHT22;32528;45.712;9.192;2022-09-03T07:33:27;23.00;83.20
28460;DHT22;32528;45.712;9.192;2022-09-03T07:35:27;23.10;83.70
28460;DHT22;32528;45.712;9.192;2022-09-03T07:37:28;23.20;83.30
28460;DHT22;32528;45.712;9.192;2022-09-03T07:39:29;23.20;83.40
28460;DHT22;32528;45.712;9.192;2022-09-03T07:41:30;23.30;82.70
28460;DHT22;32528;45.712;9.192;2022-09-03T07:43:37;23.30;82.00
28460;DHT22;32528;45.712;9.192;2022-09-03T07:45:49;23.30;81.40
28460;DHT22;32528;45.712;9.192;2022-09-03T07:47:51;23.50;81.60
28460;DHT22;32528;45.712;9.192;2022-09-03T07:49:51;23.80;81.20
28460;DHT22;32528;45.712;9.192;2022-09-03T07:51:53;24.00;80.20
28460;DHT22;32528;45.712;9.192;2022-09-03T07:53:57;24.10;80.00
28460;DHT22;32528;45.712;9.192;2022-09-03T07:56:05;24.30;78.70
28460;DHT22;32528;45.712;9.192;2022-09-03T07:58:06;24.30;78.00
28460;DHT22;32528;45.712;9.192;2022-09-03T08:00:08;24.30;77.20
28460;DHT22;32528;45.712;9.192;2022-09-03T08:02:12;24.30;77.10
28460;DHT22;32528;45.712;9.192;2022-09-03T08:04:12;24.30;77.90
28460;DHT22;32528;45.712;9.192;2022-09-03T08:06:15;24.30;78.50
28460;DHT22;32528;45.712;9.192;2022-09-03T08:08:16;24.30;79.00
28460;DHT22;32528;45.712;9.192;2022-09-03T08:10:17;24.40;78.40
28460;DHT22;32528;45.712;9.192;2022-09-03T08:12:18;24.40;76.40
28460;DHT22;32528;45.712;9.192;2022-09-03T08:14:18;24.40;77.00
28460;DHT22;32528;45.712;9.192;2022-09-03T08:16:19;24.40;76.00
28460;DHT22;32528;45.712;9.192;2022-09-03T08:18:20;24.50;76.70
28460;DHT22;32528;45.712;9.192;2022-09-03T08:20:22;24.50;77.90
28460;DHT22;32528;45.712;9.192;2022-09-03T08:22:23;24.50;78.00
28460;DHT22;32528;45.712;9.192;2022-09-03T08:24:24;24.60;78.40
28460;DHT22;32528;45.712;9.192;2022-09-03T08:26:25;24.60;77.90
28460;DHT22;32528;45.712;9.192;2022-09-03T08:28:27;24.70;78.10
28460;DHT22;32528;45.712;9.192;2022-09-03T08:30:28;24.80;76.60
28460;DHT22;32528;45.712;9.192;2022-09-03T08:32:29;24.90;76.20
28460;DHT22;32528;45.712;9.192;2022-09-03T08:34:29;24.90;75.20
28460;DHT22;32528;45.712;9.192;2022-09-03T08:36:35;24.90;75.00
28460;DHT22;32528;45.712;9.192;2022-09-03T08:38:36;25.00;75.40
28460;DHT22;32528;45.712;9.192;2022-09-03T08:40:37;25.10;76.20
28460;DHT22;32528;45.712;9.192;2022-09-03T08:44:58;25.20;73.60
28460;DHT22;32528;45.712;9.192;2022-09-03T08:49:13;25.40;72.80
28460;DHT22;32528;45.712;9.192;2022-09-03T08:51:17;25.30;72.70
28460;DHT22;32528;45.712;9.192;2022-09-03T08:53:50;25.30;73.10
28460;DHT22;32528;45.712;9.192;2022-09-03T08:55:59;25.40;72.70
28460;DHT22;32528;45.712;9.192;2022-09-03T08:58:10;25.50;72.90
28460;DHT22;32528;45.712;9.192;2022-09-03T09:00:14;25.50;71.40
28460;DHT22;32528;45.712;9.192;2022-09-03T09:04:58;25.50;71.70
28460;DHT22;32528;45.712;9.192;2022-09-03T09:07:48;25.70;73.40
28460;DHT22;32528;45.712;9.192;2022-09-03T09:14:34;25.80;71.80
28460;DHT22;32528;45.712;9.192;2022-09-03T09:16:42;25.80;72.00
28460;DHT22;32528;45.712;9.192;2022-09-03T09:18:56;25.80;71.80
28460;DHT22;32528;45.712;9.192;2022-09-03T09:21:22;25.70;71.50
28460;DHT22;32528;45.712;9.192;2022-09-03T09:23:34;25.60;70.00
28460;DHT22;32528;45.712;9.192;2022-09-03T09:25:46;25.60;71.00
28460;DHT22;32528;45.712;9.192;2022-09-03T09:28:07;25.70;71.40
28460;DHT22;32528;45.712;9.192;2022-09-03T09:30:12;25.70;71.00
28460;DHT22;32528;45.712;9.192;2022-09-03T09:32:16;25.70;71.20
28460;DHT22;32528;45.712;9.192;2022-09-03T09:34:18;25.80;71.10
28460;DHT22;32528;45.712;9.192;2022-09-03T09:36:20;25.80;71.60
28460;DHT22;32528;45.712;9.192;2022-09-03T09:38:33;25.90;70.50
28460;DHT22;32528;45.712;9.192;2022-09-03T09:40:40;26.10;69.70
28460;DHT22;32528;45.712;9.192;2022-09-03T09:42:42;26.20;70.00
28460;DHT22;32528;45.712;9.192;2022-09-03T09:44:43;26.30;69.70
28460;DHT22;32528;45.712;9.192;2022-09-03T09:46:43;26.30;69.30
28460;DHT22;32528;45.712;9.192;2022-09-03T09:48:53;26.30;69.00
28460;DHT22;32528;45.712;9.192;2022-09-03T09:51:11;26.20;69.10
28460;DHT22;32528;45.712;9.192;2022-09-03T09:53:16;26.10;70.20
28460;DHT22;32528;45.712;9.192;2022-09-03T09:55:19;26.10;71.00
28460;DHT22;32528;45.712;9.192;2022-09-03T09:57:24;26.10;69.90
28460;DHT22;32528;45.712;9.192;2022-09-03T09:59:25;26.10;69.40
28460;DHT22;32528;45.712;9.192;2022-09-03T10:01:25;26.20;69.60
28460;DHT22;32528;45.712;9.192;2022-09-03T10:03:31;26.10;69.60
28460;DHT22;32528;45.712;9.192;2022-09-03T10:05:34;26.10;69.60
28460;DHT22;32528;45.712;9.192;2022-09-03T10:07:38;26.10;69.70
28460;DHT22;32528;45.712;9.192;2022-09-03T10:09:39;26.10;69.60
28460;DHT22;32528;45.712;9.192;2022-09-03T10:11:49;26.10;69.40
28460;DHT22;32528;45.712;9.192;2022-09-03T10:13:53;26.00;68.80
28460;DHT22;32528;45.712;9.192;2022-09-03T10:16:00;26.00;68.20
28460;DHT22;32528;45.712;9.192;2022-09-03T10:18:16;26.10;68.20
28460;DHT22;32528;45.712;9.192;2022-09-03T10:20:40;26.20;68.90
28460;DHT22;32528;45.712;9.192;2022-09-03T10:22:49;26.30;69.10
28460;DHT22;32528;45.712;9.192;2022-09-03T10:24:58;26.40;68.30
28460;DHT22;32528;45.712;9.192;2022-09-03T10:27:00;26.40;67.60
28460;DHT22;32528;45.712;9.192;2022-09-03T10:29:04;26.50;66.60
28460;DHT22;32528;45.712;9.192;2022-09-03T10:31:28;26.50;66.50
28460;DHT22;32528;45.712;9.192;2022-09-03T10:35:57;26.20;65.70
28460;DHT22;32528;45.712;9.192;2022-09-03T10:38:32;26.00;65.70
28460;DHT22;32528;45.712;9.192;2022-09-03T10:43:11;25.70;66.40
28460;DHT22;32528;45.712;9.192;2022-09-03T10:50:25;25.50;68.00
28460;DHT22;32528;45.712;9.192;2022-09-03T10:53:00;25.50;68.30
28460;DHT22;32528;45.712;9.192;2022-09-03T10:57:57;25.50;67.30
28460;DHT22;32528;45.712;9.192;2022-09-03T11:00:08;25.50;68.60
28460;DHT22;32528;45.712;9.192;2022-09-03T11:04:47;25.50;67.30
28460;DHT22;32528;45.712;9.192;2022-09-03T11:06:53;25.40;67.50
28460;DHT22;32528;45.712;9.192;2022-09-03T11:09:36;25.50;68.20
28460;DHT22;32528;45.712;9.192;2022-09-03T11:11:46;25.70;67.80
28460;DHT22;32528;45.712;9.192;2022-09-03T11:14:02;25.70;67.70
28460;DHT22;32528;45.712;9.192;2022-09-03T11:16:12;25.80;67.20
28460;DHT22;32528;45.712;9.192;2022-09-03T11:18:34;25.90;67.70
28460;DHT22;32528;45.712;9.192;2022-09-03T11:20:39;26.00;67.40
28460;DHT22;32528;45.712;9.192;2022-09-03T11:22:42;26.20;67.50
28460;DHT22;32528;45.712;9.192;2022-09-03T11:24:51;26.20;67.10
28460;DHT22;32528;45.712;9.192;2022-09-03T11:27:03;26.00;65.80
28460;DHT22;32528;45.712;9.192;2022-09-03T11:29:16;26.20;66.70
28460;DHT22;32528;45.712;9.192;2022-09-03T11:33:50;26.70;66.50
28460;DHT22;32528;45.712;9.192;2022-09-03T11:35:58;27.00;65.70
28460;DHT22;32528;45.712;9.192;2022-09-03T11:38:28;27.30;64.40
28460;DHT22;32528;45.712;9.192;2022-09-03T11:42:37;27.70;64.70
28460;DHT22;32528;45.712;9.192;2022-09-03T11:44:40;27.80;64.50
28460;DHT22;32528;45.712;9.192;2022-09-03T11:46:55;28.00;65.00
28460;DHT22;32528;45.712;9.192;2022-09-03T11:49:12;27.80;64.10
28460;DHT22;32528;45.712;9.192;2022-09-03T11:53:34;27.60;64.00
28460;DHT22;32528;45.712;9.192;2022-09-03T11:56:33;27.60;64.30
28460;DHT22;32528;45.712;9.192;2022-09-03T11:58:35;27.60;63.30
28460;DHT22;32528;45.712;9.192;2022-09-03T12:00:38;27.60;64.80
28460;DHT22;32528;45.712;9.192;2022-09-03T12:02:44;27.60;65.00
28460;DHT22;32528;45.712;9.192;2022-09-03T12:05:08;27.70;65.10
28460;DHT22;32528;45.712;9.192;2022-09-03T12:07:37;27.70;64.10
28460;DHT22;32528;45.712;9.192;2022-09-03T12:17:15;27.50;64.50
28460;DHT22;32528;45.712;9.192;2022-09-03T12:19:38;27.50;63.60
28460;DHT22;32528;45.712;9.192;2022-09-03T12:21:40;27.70;65.10
28460;DHT22;32528;45.712;9.192;2022-09-03T12:23:46;27.80;63.70
28460;DHT22;32528;45.712;9.192;2022-09-03T12:25:51;27.90;63.10
28460;DHT22;32528;45.712;9.192;2022-09-03T12:27:52;28.00;62.90
28460;DHT22;32528;45.712;9.192;2022-09-03T12:29:55;27.90;62.50
28460;DHT22;32528;45.712;9.192;2022-09-03T12:32:07;27.80;63.10
28460;DHT22;32528;45.712;9.192;2022-09-03T12:34:13;27.80;62.20
28460;DHT22;32528;45.712;9.192;2022-09-03T12:36:14;27.90;62.70
28460;DHT22;32528;45.712;9.192;2022-09-03T12:38:22;27.80;62.80
28460;DHT22;32528;45.712;9.192;2022-09-03T12:40:26;27.70;62.50
28460;DHT22;32528;45.712;9.192;2022-09-03T12:42:30;27.70;63.80
28460;DHT22;32528;45.712;9.192;2022-09-03T12:44:40;27.80;63.20
28460;DHT22;32528;45.712;9.192;2022-09-03T12:46:41;27.90;61.40
28460;DHT22;32528;45.712;9.192;2022-09-03T12:48:59;27.90;62.30
28460;DHT22;32528;45.712;9.192;2022-09-03T12:51:04;28.10;60.70
28460;DHT22;32528;45.712;9.192;2022-09-03T12:53:05;28.10;60.50
28460;DHT22;32528;45.712;9.192;2022-09-03T12:57:30;28.30;61.50
28460;DHT22;32528;45.712;9.192;2022-09-03T12:59:35;28.30;61.30
28460;DHT22;32528;45.712;9.192;2022-09-03T13:01:47;28.30;60.40
28460;DHT22;32528;45.712;9.192;2022-09-03T13:03:57;28.40;61.50
28460;DHT22;32528;45.712;9.192;2022-09-03T13:06:07;28.30;59.80
28460;DHT22;32528;45.712;9.192;2022-09-03T13:08:17;28.00;59.90
28460;DHT22;32528;45.712;9.192;2022-09-03T13:10:48;27.80;59.90
28460;DHT22;32528;45.712;9.192;2022-09-03T13:12:50;27.70;61.70
28460;DHT22;32528;45.712;9.192;2022-09-03T13:14:51;27.70;60.60
28460;DHT22;32528;45.712;9.192;2022-09-03T13:21:34;27.80;60.40
28460;DHT22;32528;45.712;9.192;2022-09-03T13:33:48;28.20;59.70
28460;DHT22;32528;45.712;9.192;2022-09-03T13:36:16;28.30;59.50
28460;DHT22;32528;45.712;9.192;2022-09-03T13:38:38;28.50;58.20
28460;DHT22;32528;45.712;9.192;2022-09-03T13:40:48;28.40;59.40
28460;DHT22;32528;45.712;9.192;2022-09-03T13:45:36;28.50;59.50
28460;DHT22;32528;45.712;9.192;2022-09-03T13:47:42;28.70;60.40
28460;DHT22;32528;45.712;9.192;2022-09-03T13:50:10;28.70;59.00
28460;DHT22;32528;45.712;9.192;2022-09-03T13:53:13;28.50;58.90
28460;DHT22;32528;45.712;9.192;2022-09-03T13:57:33;28.70;60.30
28460;DHT22;32528;45.712;9.192;2022-09-03T13:59:58;28.70;60.80
28460;DHT22;32528;45.712;9.192;2022-09-03T14:02:13;28.90;60.60
28460;DHT22;32528;45.712;9.192;2022-09-03T14:04:27;28.80;59.50
28460;DHT22;32528;45.712;9.192;2022-09-03T14:09:13;28.40;59.50
28460;DHT22;32528;45.712;9.192;2022-09-03T14:11:29;28.50;61.00
28460;DHT22;32528;45.712;9.192;2022-09-03T14:16:38;28.70;60.30
28460;DHT22;32528;45.712;9.192;2022-09-03T14:18:53;28.60;59.70
28460;DHT22;32528;45.712;9.192;2022-09-03T14:21:02;28.60;61.00
28460;DHT22;32528;45.712;9.192;2022-09-03T14:25:37;28.70;61.00
28460;DHT22;32528;45.712;9.192;2022-09-03T14:27:40;28.80;60.90
28460;DHT22;32528;45.712;9.192;2022-09-03T14:29:52;29.00;61.00
28460;DHT22;32528;45.712;9.192;2022-09-03T14:34:33;29.30;59.70
28460;DHT22;32528;45.712;9.192;2022-09-03T14:36:51;29.70;59.60
28460;DHT22;32528;45.712;9.192;2022-09-03T14:50:37;29.00;59.80
28460;DHT22;32528;45.712;9.192;2022-09-03T14:52:47;28.70;60.60
28460;DHT22;32528;45.712;9.192;2022-09-03T15:02:37;28.00;62.30
28460;DHT22;32528;45.712;9.192;2022-09-03T15:04:54;28.00;62.40
28460;DHT22;32528;45.712;9.192;2022-09-03T15:09:14;28.30;61.00
28460;DHT22;32528;45.712;9.192;2022-09-03T15:11:28;28.40;60.90
28460;DHT22;32528;45.712;9.192;2022-09-03T15:13:41;28.60;60.80
28460;DHT22;32528;45.712;9.192;2022-09-03T15:36:57;28.30;60.90
28460;DHT22;32528;45.712;9.192;2022-09-03T15:39:05;28.40;60.60
28460;DHT22;32528;45.712;9.192;2022-09-03T15:41:16;28.30;61.10
28460;DHT22;32528;45.712;9.192;2022-09-03T15:43:25;28.30;61.30
28460;DHT22;32528;45.712;9.192;2022-09-03T15:45:32;28.50;60.90
28460;DHT22;32528;45.712;9.192;2022-09-03T15:49:58;28.80;60.10
28460;DHT22;32528;45.712;9.192;2022-09-03T15:54:29;29.70;59.10
28460;DHT22;32528;45.712;9.192;2022-09-03T15:59:20;32.60;54.20
28460;DHT22;32528;45.712;9.192;2022-09-03T16:06:05;39.20;46.60
28460;DHT22;32528;45.712;9.192;2022-09-03T16:10:18;39.90;43.50
28460;DHT22;32528;45.712;9.192;2022-09-03T16:12:35;39.40;42.70
28460;DHT22;32528;45.712;9.192;2022-09-03T16:14:58;39.70;42.90
28460;DHT22;32528;45.712;9.192;2022-09-03T16:19:22;39.80;43.50
28460;DHT22;32528;45.712;9.192;2022-09-03T16:21:42;40.10;41.40
28460;DHT22;32528;45.712;9.192;2022-09-03T16:23:59;40.30;41.40
28460;DHT22;32528;45.712;9.192;2022-09-03T16:26:12;40.40;40.80
28460;DHT22;32528;45.712;9.192;2022-09-03T16:37:34;32.40;51.10
28460;DHT22;32528;45.712;9.192;2022-09-03T16:46:22;29.20;58.10